sensor_id;sensor_type;location;lat;lon;timestamp;pressure;altitude;pressure_sealevel;temperature;humidity
54172;BME280;40076;52.354;4.970;2023-12-22T00:01:16;100255.06;;;7.64;100.00
54172;BME280;40076;52.354;4.970;2023-12-22T00:03:42;100263.28;;;7.59;100.00
54172;BME280;40076;52.354;4.970;2023-12-22T00:06:11;100270.06;;;7.57;100.00
54172;BME280;40076;52.354;4.970;2023-12-22T00:08:37;100268.81;;;7.54;100.00
54172;BME280;40076;52.354;4.970;2023-12-22T00:11:02;100273.22;;;7.50;100.00
54172;BME280;40076;52.354;4.970;2023-12-22T00:13:30;100300.56;;;7.52;100.00
54172;BME280;40076;52.354;4.970;2023-12-22T00:15:55;100287.63;;;7.54;100.00
54172;BME280;40076;52.354;4.970;2023-12-22T00:18:20;100270.66;;;7.45;100.00
54172;BME280;40076;52.354;4.970;2023-12-22T00:20:46;100268.47;;;7.47;100.00
54172;BME280;40076;52.354;4.970;2023-12-22T00:23:14;100276.63;;;7.33;100.00
54172;BME280;40076;52.354;4.970;2023-12-22T00:25:40;100267.97;;;7.45;100.00
54172;BME280;40076;52.354;4.970;2023-12-22T00:28:05;100270.78;;;7.40;100.00
54172;BME280;40076;52.354;4.970;2023-12-22T00:30:33;100281.91;;;7.47;100.00
54172;BME280;40076;52.354;4.970;2023-12-22T00:32:59;100280.13;;;7.43;100.00
54172;BME280;40076;52.354;4.970;2023-12-22T00:35:24;100289.31;;;7.42;100.00
54172;BME280;40076;52.354;4.970;2023-12-22T00:37:49;100283.63;;;7.43;100.00
54172;BME280;40076;52.354;4.970;2023-12-22T00:40:15;100274.94;;;7.46;100.00
54172;BME280;40076;52.354;4.970;2023-12-22T00:42:40;100275.75;;;7.47;100.00
54172;BME280;40076;52.354;4.970;2023-12-22T00:45:06;100283.47;;;7.48;100.00
54172;BME280;40076;52.354;4.970;2023-12-22T00:47:31;100281.88;;;7.39;100.00
54172;BME280;40076;52.354;4.970;2023-12-22T00:50:00;100291.69;;;7.43;100.00
54172;BME280;40076;52.354;4.970;2023-12-22T00:52:25;100293.75;;;7.46;100.00
54172;BME280;40076;52.354;4.970;2023-12-22T00:54:51;100289.19;;;7.47;100.00
54172;BME280;40076;52.354;4.970;2023-12-22T00:57:17;100294.56;;;7.47;100.00
54172;BME280;40076;52.354;4.970;2023-12-22T00:59:42;100285.06;;;7.49;100.00
54172;BME280;40076;52.354;4.970;2023-12-22T01:02:13;100288.22;;;7.51;100.00
54172;BME280;40076;52.354;4.970;2023-12-22T01:04:38;100296.91;;;7.48;100.00
54172;BME280;40076;52.354;4.970;2023-12-22T01:07:04;100283.16;;;7.50;100.00
54172;BME280;40076;52.354;4.970;2023-12-22T01:09:29;100289.97;;;7.47;100.00
54172;BME280;40076;52.354;4.970;2023-12-22T01:11:54;100283.97;;;7.50;100.00
54172;BME280;40076;52.354;4.970;2023-12-22T01:14:20;100302.16;;;7.53;100.00
54172;BME280;40076;52.354;4.970;2023-12-22T01:16:45;100300.28;;;7.54;100.00
54172;BME280;40076;52.354;4.970;2023-12-22T01:19:10;100301.69;;;7.51;100.00
54172;BME280;40076;52.354;4.970;2023-12-22T01:21:36;100293.31;;;7.53;100.00
54172;BME280;40076;52.354;4.970;2023-12-22T01:24:01;100287.94;;;7.53;100.00
54172;BME280;40076;52.354;4.970;2023-12-22T01:26:27;100280.66;;;7.53;100.00
54172;BME280;40076;52.354;4.970;2023-12-22T01:28:52;100286.19;;;7.57;100.00
54172;BME280;40076;52.354;4.970;2023-12-22T01:31:18;100291.56;;;7.57;100.00
54172;BME280;40076;52.354;4.970;2023-12-22T01:33:44;100295.34;;;7.56;100.00
54172;BME280;40076;52.354;4.970;2023-12-22T01:36:10;100299.94;;;7.55;100.00
54172;BME280;40076;52.354;4.970;2023-12-22T01:38:35;100296.94;;;7.57;100.00
54172;BME280;40076;52.354;4.970;2023-12-22T01:41:01;100301.22;;;7.58;100.00
54172;BME280;40076;52.354;4.970;2023-12-22T01:43:26;100292.38;;;7.57;100.00
54172;BME280;40076;52.354;4.970;2023-12-22T01:45:55;100301.72;;;7.60;100.00
54172;BME280;40076;52.354;4.970;2023-12-22T01:48:22;100295.53;;;7.59;100.00
54172;BME280;40076;52.354;4.970;2023-12-22T01:50:49;100291.75;;;7.60;100.00
54172;BME280;40076;52.354;4.970;2023-12-22T01:53:19;100283.38;;;7.62;100.00
54172;BME280;40076;52.354;4.970;2023-12-22T01:55:47;100287.31;;;7.64;100.00
54172;BME280;40076;52.354;4.970;2023-12-22T01:58:13;100292.88;;;7.68;100.00
54172;BME280;40076;52.354;4.970;2023-12-22T02:00:38;100284.81;;;7.68;100.00
54172;BME280;40076;52.354;4.970;2023-12-22T02:03:04;100283.72;;;7.69;100.00
54172;BME280;40076;52.354;4.970;2023-12-22T02:05:30;100288.75;;;7.70;100.00
54172;BME280;40076;52.354;4.970;2023-12-22T02:07:55;100301.91;;;7.72;100.00
54172;BME280;40076;52.354;4.970;2023-12-22T02:10:20;100296.50;;;7.72;100.00
54172;BME280;40076;52.354;4.970;2023-12-22T02:12:46;100282.59;;;7.79;100.00
54172;BME280;40076;52.354;4.970;2023-12-22T02:15:11;100288.66;;;7.84;100.00
54172;BME280;40076;52.354;4.970;2023-12-22T02:17:55;100286.59;;;7.90;100.00
54172;BME280;40076;52.354;4.970;2023-12-22T02:20:24;100274.44;;;7.92;100.00
54172;BME280;40076;52.354;4.970;2023-12-22T02:22:52;100274.56;;;7.96;100.00
54172;BME280;40076;52.354;4.970;2023-12-22T02:25:18;100279.97;;;8.04;100.00
54172;BME280;40076;52.354;4.970;2023-12-22T02:32:51;100270.00;;;8.13;100.00
54172;BME280;40076;52.354;4.970;2023-12-22T02:35:24;100268.91;;;8.14;100.00
54172;BME280;40076;52.354;4.970;2023-12-22T02:37:51;100267.47;;;8.17;100.00
54172;BME280;40076;52.354;4.970;2023-12-22T02:40:16;100257.97;;;8.20;100.00
54172;BME280;40076;52.354;4.970;2023-12-22T02:42:44;100277.63;;;8.20;100.00
54172;BME280;40076;52.354;4.970;2023-12-22T02:45:17;100273.50;;;8.23;100.00
54172;BME280;40076;52.354;4.970;2023-12-22T02:47:43;100275.56;;;8.26;100.00
54172;BME280;40076;52.354;4.970;2023-12-22T02:50:09;100290.28;;;8.28;100.00
54172;BME280;40076;52.354;4.970;2023-12-22T02:52:34;100278.59;;;8.33;100.00
54172;BME280;40076;52.354;4.970;2023-12-22T02:55:01;100286.84;;;8.36;100.00
54172;BME280;40076;52.354;4.970;2023-12-22T02:57:26;100274.97;;;8.37;100.00
54172;BME280;40076;52.354;4.970;2023-12-22T02:59:52;100262.13;;;8.43;100.00
54172;BME280;40076;52.354;4.970;2023-12-22T03:02:18;100267.50;;;8.43;100.00
54172;BME280;40076;52.354;4.970;2023-12-22T03:04:43;100264.50;;;8.44;100.00
54172;BME280;40076;52.354;4.970;2023-12-22T03:07:11;100278.44;;;8.46;100.00
54172;BME280;40076;52.354;4.970;2023-12-22T03:09:36;100267.69;;;8.46;100.00
54172;BME280;40076;52.354;4.970;2023-12-22T03:12:02;100281.16;;;8.46;100.00
54172;BME280;40076;52.354;4.970;2023-12-22T03:14:32;100297.75;;;8.48;100.00
54172;BME280;40076;52.354;4.970;2023-12-22T03:17:01;100291.44;;;8.53;100.00
54172;BME280;40076;52.354;4.970;2023-12-22T03:19:27;100285.25;;;8.52;100.00
54172;BME280;40076;52.354;4.970;2023-12-22T03:21:52;100338.16;;;8.57;100.00
54172;BME280;40076;52.354;4.970;2023-12-22T03:24:18;100339.59;;;8.46;100.00
54172;BME280;40076;52.354;4.970;2023-12-22T03:26:45;100348.56;;;8.33;100.00
54172;BME280;40076;52.354;4.970;2023-12-22T03:29:10;100330.00;;;8.14;100.00
54172;BME280;40076;52.354;4.970;2023-12-22T03:31:36;100339.03;;;8.01;100.00
54172;BME280;40076;52.354;4.970;2023-12-22T03:34:01;100328.38;;;7.96;100.00
54172;BME280;40076;52.354;4.970;2023-12-22T03:36:26;100330.25;;;7.87;100.00
54172;BME280;40076;52.354;4.970;2023-12-22T03:38:52;100335.78;;;7.82;100.00
54172;BME280;40076;52.354;4.970;2023-12-22T03:41:17;100338.00;;;7.80;100.00
54172;BME280;40076;52.354;4.970;2023-12-22T03:43:43;100330.25;;;7.78;100.00
54172;BME280;40076;52.354;4.970;2023-12-22T03:46:08;100346.03;;;7.71;100.00
54172;BME280;40076;52.354;4.970;2023-12-22T03:48:33;100329.59;;;7.72;100.00
54172;BME280;40076;52.354;4.970;2023-12-22T03:50:59;100339.09;;;7.70;100.00
54172;BME280;40076;52.354;4.970;2023-12-22T03:53:24;100344.13;;;7.71;100.00
54172;BME280;40076;52.354;4.970;2023-12-22T03:55:49;100327.19;;;7.71;100.00
54172;BME280;40076;52.354;4.970;2023-12-22T03:58:15;100317.22;;;7.71;100.00
54172;BME280;40076;52.354;4.970;2023-12-22T04:00:40;100323.41;;;7.72;100.00
54172;BME280;40076;52.354;4.970;2023-12-22T04:03:05;100312.19;;;7.70;100.00
54172;BME280;40076;52.354;4.970;2023-12-22T04:05:31;100314.09;;;7.69;100.00
54172;BME280;40076;52.354;4.970;2023-12-22T04:07:56;100315.19;;;7.68;100.00
54172;BME280;40076;52.354;4.970;2023-12-22T04:10:21;100313.75;;;7.71;100.00
54172;BME280;40076;52.354;4.970;2023-12-22T04:12:47;100315.34;;;7.72;100.00
54172;BME280;40076;52.354;4.970;2023-12-22T04:15:12;100333.06;;;7.73;100.00
54172;BME280;40076;52.354;4.970;2023-12-22T04:17:38;100325.97;;;7.77;100.00
54172;BME280;40076;52.354;4.970;2023-12-22T04:20:05;100349.84;;;7.79;100.00
54172;BME280;40076;52.354;4.970;2023-12-22T04:22:30;100328.22;;;7.84;100.00
54172;BME280;40076;52.354;4.970;2023-12-22T04:24:56;100319.84;;;7.85;100.00
54172;BME280;40076;52.354;4.970;2023-12-22T04:27:21;100327.91;;;7.85;100.00
54172;BME280;40076;52.354;4.970;2023-12-22T04:29:46;100332.16;;;7.86;100.00
54172;BME280;40076;52.354;4.970;2023-12-22T04:32:12;100332.34;;;7.90;100.00
54172;BME280;40076;52.354;4.970;2023-12-22T04:34:37;100317.78;;;7.91;100.00
54172;BME280;40076;52.354;4.970;2023-12-22T04:37:02;100317.94;;;7.94;100.00
54172;BME280;40076;52.354;4.970;2023-12-22T04:39:28;100322.50;;;7.94;100.00
54172;BME280;40076;52.354;4.970;2023-12-22T04:41:53;100327.28;;;7.97;100.00
54172;BME280;40076;52.354;4.970;2023-12-22T04:44:18;100325.38;;;7.97;100.00
54172;BME280;40076;52.354;4.970;2023-12-22T04:46:44;100314.81;;;8.01;100.00
54172;BME280;40076;52.354;4.970;2023-12-22T04:49:09;100326.03;;;8.03;100.00
54172;BME280;40076;52.354;4.970;2023-12-22T04:51:34;100315.75;;;8.05;100.00
54172;BME280;40076;52.354;4.970;2023-12-22T04:53:59;100321.91;;;8.05;100.00
54172;BME280;40076;52.354;4.970;2023-12-22T04:56:26;100307.22;;;8.11;100.00
54172;BME280;40076;52.354;4.970;2023-12-22T04:58:51;100313.22;;;8.17;100.00
54172;BME280;40076;52.354;4.970;2023-12-22T05:01:17;100316.72;;;8.18;100.00
54172;BME280;40076;52.354;4.970;2023-12-22T05:03:43;100304.69;;;8.24;100.00
54172;BME280;40076;52.354;4.970;2023-12-22T05:06:08;100303.25;;;8.26;100.00
54172;BME280;40076;52.354;4.970;2023-12-22T05:08:33;100311.22;;;8.31;100.00
54172;BME280;40076;52.354;4.970;2023-12-22T05:10:59;100299.50;;;8.36;100.00
54172;BME280;40076;52.354;4.970;2023-12-22T05:13:25;100322.47;;;8.42;100.00
54172;BME280;40076;52.354;4.970;2023-12-22T05:15:50;100306.31;;;8.42;100.00
54172;BME280;40076;52.354;4.970;2023-12-22T05:18:15;100288.44;;;8.46;100.00
54172;BME280;40076;52.354;4.970;2023-12-22T05:20:40;100287.47;;;8.50;100.00
54172;BME280;40076;52.354;4.970;2023-12-22T05:23:06;100307.25;;;8.55;100.00
54172;BME280;40076;52.354;4.970;2023-12-22T05:25:31;100321.19;;;8.57;100.00
54172;BME280;40076;52.354;4.970;2023-12-22T05:27:57;100309.50;;;8.61;100.00
54172;BME280;40076;52.354;4.970;2023-12-22T05:30:22;100301.06;;;8.63;100.00
54172;BME280;40076;52.354;4.970;2023-12-22T05:32:47;100293.47;;;8.65;100.00
54172;BME280;40076;52.354;4.970;2023-12-22T05:35:13;100296.97;;;8.65;100.00
54172;BME280;40076;52.354;4.970;2023-12-22T05:37:38;100302.03;;;8.67;100.00
54172;BME280;40076;52.354;4.970;2023-12-22T05:40:04;100295.22;;;8.69;100.00
54172;BME280;40076;52.354;4.970;2023-12-22T05:42:31;100299.16;;;8.72;100.00
54172;BME280;40076;52.354;4.970;2023-12-22T05:44:56;100291.56;;;8.74;100.00
54172;BME280;40076;52.354;4.970;2023-12-22T05:47:23;100293.28;;;8.78;100.00
54172;BME280;40076;52.354;4.970;2023-12-22T05:49:48;100303.63;;;8.76;100.00
54172;BME280;40076;52.354;4.970;2023-12-22T05:52:14;100291.38;;;8.79;100.00
54172;BME280;40076;52.354;4.970;2023-12-22T05:54:39;100309.94;;;8.80;100.00
54172;BME280;40076;52.354;4.970;2023-12-22T05:57:04;100308.03;;;8.81;100.00
54172;BME280;40076;52.354;4.970;2023-12-22T05:59:32;100302.81;;;8.84;100.00
54172;BME280;40076;52.354;4.970;2023-12-22T06:02:00;100306.25;;;8.85;100.00
54172;BME280;40076;52.354;4.970;2023-12-22T06:04:26;100298.19;;;8.85;100.00
54172;BME280;40076;52.354;4.970;2023-12-22T06:06:51;100304.53;;;8.89;100.00
54172;BME280;40076;52.354;4.970;2023-12-22T06:09:17;100298.81;;;8.90;100.00
54172;BME280;40076;52.354;4.970;2023-12-22T06:11:44;100303.13;;;8.92;100.00
54172;BME280;40076;52.354;4.970;2023-12-22T06:14:09;100298.50;;;8.92;100.00
54172;BME280;40076;52.354;4.970;2023-12-22T06:16:35;100301.34;;;8.96;100.00
54172;BME280;40076;52.354;4.970;2023-12-22T06:19:03;100303.25;;;8.95;100.00
54172;BME280;40076;52.354;4.970;2023-12-22T06:21:28;100308.81;;;8.99;100.00
54172;BME280;40076;52.354;4.970;2023-12-22T06:23:54;100305.75;;;9.00;100.00
54172;BME280;40076;52.354;4.970;2023-12-22T06:26:19;100305.13;;;9.03;100.00
54172;BME280;40076;52.354;4.970;2023-12-22T06:28:44;100298.16;;;9.02;100.00
54172;BME280;40076;52.354;4.970;2023-12-22T06:31:17;100287.06;;;9.04;100.00
54172;BME280;40076;52.354;4.970;2023-12-22T06:33:43;100295.63;;;9.06;100.00
54172;BME280;40076;52.354;4.970;2023-12-22T06:36:18;100295.31;;;9.07;100.00
54172;BME280;40076;52.354;4.970;2023-12-22T06:38:43;100301.16;;;9.09;100.00
54172;BME280;40076;52.354;4.970;2023-12-22T06:41:20;100301.16;;;9.09;100.00
54172;BME280;40076;52.354;4.970;2023-12-22T06:43:46;100298.94;;;9.11;100.00
54172;BME280;40076;52.354;4.970;2023-12-22T06:46:15;100309.09;;;9.14;100.00
54172;BME280;40076;52.354;4.970;2023-12-22T06:48:41;100298.28;;;9.14;100.00
54172;BME280;40076;52.354;4.970;2023-12-22T06:51:07;100304.13;;;9.16;100.00
54172;BME280;40076;52.354;4.970;2023-12-22T06:53:32;100315.41;;;9.18;100.00
54172;BME280;40076;52.354;4.970;2023-12-22T06:55:57;100307.78;;;9.20;100.00
54172;BME280;40076;52.354;4.970;2023-12-22T06:58:23;100304.63;;;9.18;100.00
54172;BME280;40076;52.354;4.970;2023-12-22T07:00:50;100309.69;;;9.20;100.00
54172;BME280;40076;52.354;4.970;2023-12-22T07:03:16;100304.78;;;9.22;100.00
54172;BME280;40076;52.354;4.970;2023-12-22T07:05:42;100294.44;;;9.24;100.00
54172;BME280;40076;52.354;4.970;2023-12-22T07:08:07;100297.94;;;9.24;100.00
54172;BME280;40076;52.354;4.970;2023-12-22T07:10:33;100298.72;;;9.25;100.00
54172;BME280;40076;52.354;4.970;2023-12-22T07:12:59;100293.00;;;9.26;100.00
54172;BME280;40076;52.354;4.970;2023-12-22T07:15:24;100315.84;;;9.29;100.00
54172;BME280;40076;52.354;4.970;2023-12-22T07:17:49;100314.75;;;9.30;100.00
54172;BME280;40076;52.354;4.970;2023-12-22T07:20:14;100301.72;;;9.32;100.00
54172;BME280;40076;52.354;4.970;2023-12-22T07:22:40;100294.88;;;9.35;100.00
54172;BME280;40076;52.354;4.970;2023-12-22T07:25:06;100290.59;;;9.34;100.00
54172;BME280;40076;52.354;4.970;2023-12-22T07:27:33;100300.28;;;9.35;100.00
54172;BME280;40076;52.354;4.970;2023-12-22T07:30:01;100316.16;;;9.36;100.00
54172;BME280;40076;52.354;4.970;2023-12-22T07:32:26;100302.81;;;9.31;100.00
54172;BME280;40076;52.354;4.970;2023-12-22T07:34:51;100288.41;;;9.27;100.00
54172;BME280;40076;52.354;4.970;2023-12-22T07:37:16;100302.53;;;9.24;100.00
54172;BME280;40076;52.354;4.970;2023-12-22T07:39:42;100299.69;;;9.20;100.00
54172;BME280;40076;52.354;4.970;2023-12-22T07:42:10;100288.44;;;9.18;100.00
54172;BME280;40076;52.354;4.970;2023-12-22T07:44:35;100294.94;;;9.17;100.00
54172;BME280;40076;52.354;4.970;2023-12-22T07:47:00;100292.25;;;9.17;100.00
54172;BME280;40076;52.354;4.970;2023-12-22T07:49:26;100301.00;;;9.14;100.00
54172;BME280;40076;52.354;4.970;2023-12-22T07:51:52;100292.56;;;9.16;100.00
54172;BME280;40076;52.354;4.970;2023-12-22T07:54:19;100307.63;;;9.17;100.00
54172;BME280;40076;52.354;4.970;2023-12-22T07:56:45;100308.41;;;9.17;100.00
54172;BME280;40076;52.354;4.970;2023-12-22T07:59:10;100315.41;;;9.18;100.00
54172;BME280;40076;52.354;4.970;2023-12-22T08:01:35;100311.13;;;9.17;100.00
54172;BME280;40076;52.354;4.970;2023-12-22T08:04:01;100327.75;;;9.19;100.00
54172;BME280;40076;52.354;4.970;2023-12-22T08:06:26;100308.59;;;9.21;100.00
54172;BME280;40076;52.354;4.970;2023-12-22T08:08:52;100300.50;;;9.21;100.00
54172;BME280;40076;52.354;4.970;2023-12-22T08:11:20;100308.59;;;9.21;100.00
54172;BME280;40076;52.354;4.970;2023-12-22T08:13:45;100300.00;;;9.19;100.00
54172;BME280;40076;52.354;4.970;2023-12-22T08:16:10;100312.69;;;9.18;100.00
54172;BME280;40076;52.354;4.970;2023-12-22T08:18:36;100302.25;;;9.17;100.00
54172;BME280;40076;52.354;4.970;2023-12-22T08:21:01;100291.94;;;9.19;100.00
54172;BME280;40076;52.354;4.970;2023-12-22T08:23:27;100281.94;;;9.19;100.00
54172;BME280;40076;52.354;4.970;2023-12-22T08:25:52;100277.66;;;9.18;100.00
54172;BME280;40076;52.354;4.970;2023-12-22T08:28:18;100258.78;;;9.18;100.00
54172;BME280;40076;52.354;4.970;2023-12-22T08:30:43;100276.56;;;9.19;100.00
54172;BME280;40076;52.354;4.970;2023-12-22T08:33:09;100274.16;;;9.18;100.00
54172;BME280;40076;52.354;4.970;2023-12-22T08:35:34;100273.84;;;9.19;100.00
54172;BME280;40076;52.354;4.970;2023-12-22T08:38:00;100264.34;;;9.22;100.00
54172;BME280;40076;52.354;4.970;2023-12-22T08:40:25;100271.75;;;9.25;100.00
54172;BME280;40076;52.354;4.970;2023-12-22T08:42:52;100286.03;;;9.25;100.00
54172;BME280;40076;52.354;4.970;2023-12-22T08:45:27;100284.94;;;9.26;100.00
54172;BME280;40076;52.354;4.970;2023-12-22T08:47:55;100279.69;;;9.30;100.00
54172;BME280;40076;52.354;4.970;2023-12-22T08:50:23;100283.94;;;9.31;100.00
54172;BME280;40076;52.354;4.970;2023-12-22T08:52:51;100293.31;;;9.34;100.00
54172;BME280;40076;52.354;4.970;2023-12-22T08:55:19;100295.81;;;9.39;100.00
54172;BME280;40076;52.354;4.970;2023-12-22T08:57:44;100287.88;;;9.42;100.00
54172;BME280;40076;52.354;4.970;2023-12-22T09:00:10;100290.56;;;9.42;100.00
54172;BME280;40076;52.354;4.970;2023-12-22T09:02:36;100291.38;;;9.43;100.00
54172;BME280;40076;52.354;4.970;2023-12-22T09:05:02;100294.19;;;9.46;100.00
54172;BME280;40076;52.354;4.970;2023-12-22T09:07:28;100292.63;;;9.45;100.00
54172;BME280;40076;52.354;4.970;2023-12-22T09:09:59;100301.38;;;9.42;100.00
54172;BME280;40076;52.354;4.970;2023-12-22T09:15:51;100288.88;;;9.38;100.00
54172;BME280;40076;52.354;4.970;2023-12-22T09:18:16;100291.22;;;9.39;100.00
54172;BME280;40076;52.354;4.970;2023-12-22T09:20:42;100286.97;;;9.38;100.00
54172;BME280;40076;52.354;4.970;2023-12-22T09:23:07;100271.88;;;9.37;100.00
54172;BME280;40076;52.354;4.970;2023-12-22T09:25:35;100284.59;;;9.37;100.00
54172;BME280;40076;52.354;4.970;2023-12-22T09:28:08;100270.94;;;9.33;100.00
54172;BME280;40076;52.354;4.970;2023-12-22T09:30:34;100286.16;;;9.38;100.00
54172;BME280;40076;52.354;4.970;2023-12-22T09:32:59;100284.72;;;9.40;100.00
54172;BME280;40076;52.354;4.970;2023-12-22T09:35:24;100294.06;;;9.43;100.00
54172;BME280;40076;52.354;4.970;2023-12-22T09:37:51;100290.72;;;9.46;100.00
54172;BME280;40076;52.354;4.970;2023-12-22T09:40:17;100281.50;;;9.47;100.00
54172;BME280;40076;52.354;4.970;2023-12-22T09:42:45;100286.72;;;9.52;100.00
54172;BME280;40076;52.354;4.970;2023-12-22T09:45:11;100311.94;;;9.56;100.00
54172;BME280;40076;52.354;4.970;2023-12-22T09:47:42;100286.34;;;9.62;100.00
54172;BME280;40076;52.354;4.970;2023-12-22T09:50:11;100296.03;;;9.63;100.00
54172;BME280;40076;52.354;4.970;2023-12-22T09:52:42;100287.78;;;9.68;100.00
54172;BME280;40076;52.354;4.970;2023-12-22T09:55:08;100300.59;;;9.71;100.00
54172;BME280;40076;52.354;4.970;2023-12-22T09:57:35;100303.13;;;9.76;100.00
54172;BME280;40076;52.354;4.970;2023-12-22T10:00:03;100305.47;;;9.78;100.00
54172;BME280;40076;52.354;4.970;2023-12-22T10:02:33;100302.94;;;9.81;100.00
54172;BME280;40076;52.354;4.970;2023-12-22T10:04:58;100298.44;;;9.85;100.00
54172;BME280;40076;52.354;4.970;2023-12-22T10:07:25;100306.69;;;9.89;100.00
54172;BME280;40076;52.354;4.970;2023-12-22T10:09:52;100307.16;;;9.91;100.00
54172;BME280;40076;52.354;4.970;2023-12-22T10:12:19;100311.09;;;9.93;100.00
54172;BME280;40076;52.354;4.970;2023-12-22T10:14:47;100303.31;;;9.92;100.00
54172;BME280;40076;52.354;4.970;2023-12-22T10:17:14;100312.69;;;9.94;100.00
54172;BME280;40076;52.354;4.970;2023-12-22T10:19:42;100312.03;;;9.97;100.00
54172;BME280;40076;52.354;4.970;2023-12-22T10:22:10;100326.97;;;9.95;100.00
54172;BME280;40076;52.354;4.970;2023-12-22T10:24:46;100322.03;;;9.97;100.00
54172;BME280;40076;52.354;4.970;2023-12-22T10:27:16;100313.16;;;9.96;100.00
54172;BME280;40076;52.354;4.970;2023-12-22T10:29:48;100316.31;;;9.98;100.00
54172;BME280;40076;52.354;4.970;2023-12-22T10:32:13;100314.53;;;10.02;100.00
54172;BME280;40076;52.354;4.970;2023-12-22T10:34:39;100319.94;;;10.02;100.00
54172;BME280;40076;52.354;4.970;2023-12-22T10:37:04;100319.94;;;10.02;100.00
54172;BME280;40076;52.354;4.970;2023-12-22T10:39:31;100318.50;;;10.05;100.00
54172;BME280;40076;52.354;4.970;2023-12-22T10:42:00;100309.41;;;10.10;100.00
54172;BME280;40076;52.354;4.970;2023-12-22T10:44:26;100317.84;;;10.08;100.00
54172;BME280;40076;52.354;4.970;2023-12-22T10:46:52;100321.78;;;10.11;100.00
54172;BME280;40076;52.354;4.970;2023-12-22T10:49:21;100323.38;;;10.12;100.00
54172;BME280;40076;52.354;4.970;2023-12-22T10:51:52;100316.53;;;10.14;100.00
54172;BME280;40076;52.354;4.970;2023-12-22T10:54:19;100315.75;;;10.14;100.00
54172;BME280;40076;52.354;4.970;2023-12-22T10:56:44;100314.28;;;10.16;100.00
54172;BME280;40076;52.354;4.970;2023-12-22T10:59:10;100296.69;;;10.19;100.00
54172;BME280;40076;52.354;4.970;2023-12-22T11:01:36;100304.47;;;10.20;100.00
54172;BME280;40076;52.354;4.970;2023-12-22T11:04:09;100306.47;;;10.23;100.00
54172;BME280;40076;52.354;4.970;2023-12-22T11:06:41;100305.69;;;10.23;100.00
54172;BME280;40076;52.354;4.970;2023-12-22T11:09:08;100297.75;;;10.26;100.00
54172;BME280;40076;52.354;4.970;2023-12-22T11:11:35;100298.22;;;10.28;100.00
54172;BME280;40076;52.354;4.970;2023-12-22T11:14:02;100292.44;;;10.30;100.00
54172;BME280;40076;52.354;4.970;2023-12-22T11:16:28;100299.44;;;10.31;100.00
54172;BME280;40076;52.354;4.970;2023-12-22T11:18:54;100293.06;;;10.35;100.00
54172;BME280;40076;52.354;4.970;2023-12-22T11:21:24;100288.78;;;10.34;100.00
54172;BME280;40076;52.354;4.970;2023-12-22T11:23:50;100293.53;;;10.37;100.00
54172;BME280;40076;52.354;4.970;2023-12-22T11:26:20;100292.28;;;10.35;100.00
54172;BME280;40076;52.354;4.970;2023-12-22T11:28:46;100300.06;;;10.36;100.00
54172;BME280;40076;52.354;4.970;2023-12-22T11:31:13;100287.78;;;10.39;100.00
54172;BME280;40076;52.354;4.970;2023-12-22T11:33:44;100290.94;;;10.41;100.00
54172;BME280;40076;52.354;4.970;2023-12-22T11:36:11;100280.94;;;10.41;100.00
54172;BME280;40076;52.354;4.970;2023-12-22T11:38:40;100277.91;;;10.43;100.00
54172;BME280;40076;52.354;4.970;2023-12-22T11:41:11;100286.00;;;10.43;100.00
54172;BME280;40076;52.354;4.970;2023-12-22T11:43:42;100258.53;;;10.41;100.00
54172;BME280;40076;52.354;4.970;2023-12-22T11:46:09;100255.50;;;10.42;100.00
54172;BME280;40076;52.354;4.970;2023-12-22T11:48:35;100247.19;;;10.48;100.00
54172;BME280;40076;52.354;4.970;2023-12-22T11:51:00;100237.66;;;10.50;100.00
54172;BME280;40076;52.354;4.970;2023-12-22T11:53:30;100223.03;;;10.51;100.00
54172;BME280;40076;52.354;4.970;2023-12-22T11:56:05;100256.22;;;10.52;100.00
54172;BME280;40076;52.354;4.970;2023-12-22T11:58:40;100230.44;;;10.54;100.00
54172;BME280;40076;52.354;4.970;2023-12-22T12:01:08;100228.22;;;10.56;100.00
54172;BME280;40076;52.354;4.970;2023-12-22T12:03:49;100225.19;;;10.58;100.00
54172;BME280;40076;52.354;4.970;2023-12-22T12:08:50;100235.31;;;10.61;100.00
54172;BME280;40076;52.354;4.970;2023-12-22T12:11:16;100229.25;;;10.64;100.00
54172;BME280;40076;52.354;4.970;2023-12-22T12:13:48;100234.66;;;10.64;100.00
54172;BME280;40076;52.354;4.970;2023-12-22T12:16:18;100242.88;;;10.67;100.00
54172;BME280;40076;52.354;4.970;2023-12-22T12:18:50;100216.19;;;10.66;100.00
54172;BME280;40076;52.354;4.970;2023-12-22T12:21:18;100213.59;;;10.69;100.00
54172;BME280;40076;52.354;4.970;2023-12-22T12:23:48;100221.38;;;10.71;100.00
54172;BME280;40076;52.354;4.970;2023-12-22T12:26:13;100221.06;;;10.72;100.00
54172;BME280;40076;52.354;4.970;2023-12-22T12:28:44;100229.94;;;10.73;100.00
54172;BME280;40076;52.354;4.970;2023-12-22T12:31:13;100216.09;;;10.74;100.00
54172;BME280;40076;52.354;4.970;2023-12-22T12:33:39;100243.56;;;10.76;100.00
54172;BME280;40076;52.354;4.970;2023-12-22T12:36:05;100241.66;;;10.77;100.00
54172;BME280;40076;52.354;4.970;2023-12-22T12:39:09;100220.41;;;10.75;100.00
54172;BME280;40076;52.354;4.970;2023-12-22T12:41:42;100220.19;;;10.80;100.00
54172;BME280;40076;52.354;4.970;2023-12-22T12:44:14;100232.75;;;10.76;100.00
54172;BME280;40076;52.354;4.970;2023-12-22T12:46:41;100215.88;;;10.79;100.00
54172;BME280;40076;52.354;4.970;2023-12-22T12:49:14;100230.53;;;10.78;100.00
54172;BME280;40076;52.354;4.970;2023-12-22T12:51:46;100221.28;;;10.79;100.00
54172;BME280;40076;52.354;4.970;2023-12-22T12:54:15;100236.84;;;10.82;100.00
54172;BME280;40076;52.354;4.970;2023-12-22T12:56:47;100234.94;;;10.83;100.00